Ana Sayfa
METAR-TAF:

METAR-TAF

Havaalanları :

Iğdır Şehit Bülent Aydın Havalimanı

Iğdır, Türkiye

Enlem: 39-58-36N, Boylam: 43-52-36E, yükseklik: 945 m

Güncel hava durumu gözlemi

Rapor saat 11:50 UTC de 3 saat ve 19 dakika önce yapıldı.
Rüzgar doğudan 10 kt
Sıcaklık 13°C
Nem 47%
Basınç 1010 hPa
Görüş mesafesi 10 km veya daha fazla
3000 ft yükseklikte parçalı çok bulutlu
8000 ft yükseklikte parçalı çok bulutlu

METAR: LTCT 211150Z 09010KT 9999 BKN030 BKN080 13/02 Q1010

Saat: 18:09 (15:09 UTC)

Tahmin

Rapor saat 13:40 UTC de 1 saat ve 29 dakika önce yapıldı.
Ayın 21'si saat 15 UTC'den ayın 21'si saat 24 UTC'ye kadar geçerli Tahmin
Rüzgar doğudan 10 kt
Görüş mesafesi 10 km veya daha fazla
3000 ft yükseklikte parçalı çok bulutlu
8000 ft yükseklikte parçalı çok bulutlu
Geçici
ayın 21'si saat 15 UTC'den ayın 21'si saat 18 UTC'ye kadar
hafif sağanak yağmurlar

TAF: LTCT 211340Z 2115/2124 09010KT 9999 BKN030 BKN080 TEMPO 2115/2118 -SHRA

4.000'den fazla havaalanı için hava durumu gözlemleri ve tahminleri (METAR ve TAF raporları).

Kullanılabilir istasyonlar harita üzerinde sarı ve kırmızı noktalarla gösterilir.

İstasyonun adını görmek için fareyi noktanın üzerinde gezdirin.

Sonrasında hava gözlem ve tahminlerini görmek için tıklayın.

Haritayı değiştirmek için: yaklaştırmak için siyah artı işaretli yeşil düğmeye ve uzaklaştırmak için de eksi işaretli düğmeye hızla tıklayın; bitişik haritalar için yeşil okları kullanın.


METAR-TAF: